首页
METAR-TAF:

METAR-TAF

机场 :

伊瓜苏, 巴拉那州, 巴西

纬度: 25-31S, 经度: 054-35W, 海拔: 180米

当前天气观测

该预报发布于1小时和9分钟前的14:00 UTC
风速5节,风向东转东北
温度 28°C
湿度 79%
气压 1014 hPa
能见度10公里或以上
少量云层高于1700英尺
多云层高于10000英尺

METAR: SBFI 201400Z 06005KT 9999 FEW017 BKN100 28/24 Q1014

时间: 13:09 (15:09 UTC)

预报

该预报发布于6小时和9分钟前的09:00 UTC
预报有效从20日的 12点(UTC)到 21日的 12点(UTC)
风速3节,风向
能见度10公里或以上
1500米以下无云,无积雨云
成为
从 20日的 12点(UTC)到 20日的 14点(UTC)
能见度10公里或以上
散云层高于2000英尺
少量云层高于3500英尺, 塔状积云.
几率 40% :
短暂存在
从 20日的 18点(UTC)到 20日的 22点(UTC)
风速8节,风向
能見度: 8000
少量云层高于4000英尺, 积雨云.
雷暴, 雨

TAF: SBFI 200900Z 2012/2112 17003KT CAVOK TX30/2017Z TN22/2108Z BECMG 2012/2014 9999 SCT020 FEW035TCU PROB40 TEMPO 2018/2022 35008KT 8000 TSRA BKN02 0 FEW040CB RMK PDV

超过4000个机场的气象观测和天气预报(METAR&TAF报告)。

可查询的气象台以黄色和红色小点在地图上表示。

将鼠标移到小点上方,可查看气象台名称。

然后点击查看天气观测和预报。

如需切换地图:点击带黑十字的绿色按钮放大地图;点击带横线的绿色按钮缩小地图;或者点击绿色箭头查看邻近地区的地图。


METAR-TAF: